Time;durP1;ratioP1;P1;durP2;ratioP2;P2;SDS_P1;SDS_P2;PMS_P1;PMS_P2;Temp;Humidity;BMP_temperature;BMP_pressure;BME280_temperature;BME280_humidity;BME280_pressure;Samples;Min_cycle;Max_cycle;Signal;HPM_P1;HPM_P2
2023/09/11 00:00:05;;;;;;;21.27;15.70;;;;;;;25.37;49.81;101243.78;4961488;28;20395;-78
2023/09/11 00:02:32;;;;;;;18.17;16.27;;;;;;;25.32;47.67;101251.75;4968952;28;20108;-78
2023/09/11 00:04:59;;;;;;;17.17;14.23;;;;;;;25.41;47.45;101254.19;4967254;28;20057;-78
2023/09/11 00:07:30;;;;;;;24.67;14.63;;;;;;;25.28;47.70;101236.09;4951100;28;20301;-78
2023/09/11 00:10:00;;;;;;;19.95;16.63;;;;;;;25.25;47.10;101245.53;4942581;28;20430;-78
2023/09/11 00:12:33;;;;;;;23.83;15.00;;;;;;;25.13;47.14;101220.91;4953431;28;20065;-80
2023/09/11 00:15:04;;;;;;;19.92;15.77;;;;;;;25.07;47.32;101226.34;4924859;28;20050;-78
2023/09/11 00:17:31;;;;;;;24.50;16.27;;;;;;;25.19;47.71;101246.38;4942489;28;20393;-78
2023/09/11 00:19:58;;;;;;;21.00;16.08;;;;;;;25.21;47.33;101233.41;4944400;28;20337;-78
2023/09/11 00:22:43;;;;;;;19.38;15.77;;;;;;;25.16;47.47;101230.50;4939401;28;20101;-79
2023/09/11 00:25:10;;;;;;;18.08;15.55;;;;;;;25.12;48.00;101224.69;4945302;28;20543;-78
2023/09/11 00:27:37;;;;;;;22.33;15.90;;;;;;;25.06;48.84;101217.38;4943269;28;20054;-79
2023/09/11 00:30:06;;;;;;;18.25;14.93;;;;;;;25.06;48.96;101222.00;4939268;28;20104;-79
2023/09/11 00:32:36;;;;;;;18.42;15.55;;;;;;;24.82;49.19;101199.13;4935421;28;20609;-77
2023/09/11 00:35:03;;;;;;;18.70;15.02;;;;;;;25.09;50.14;101238.66;4936914;28;20057;-79
2023/09/11 00:37:30;;;;;;;19.67;16.38;;;;;;;24.99;47.94;101230.16;4942832;28;20048;-81
2023/09/11 00:39:57;;;;;;;25.70;17.15;;;;;;;24.98;47.85;101233.94;4953413;28;20050;-79
2023/09/11 00:42:24;;;;;;;20.85;16.35;;;;;;;25.03;48.02;101244.16;4952437;28;20112;-80
2023/09/11 00:44:52;;;;;;;17.10;15.35;;;;;;;25.02;51.01;101237.88;4949062;28;20442;-78
2023/09/11 00:47:20;;;;;;;19.52;16.05;;;;;;;24.93;49.74;101223.72;4937907;28;20076;-79
2023/09/11 00:49:47;;;;;;;18.00;15.75;;;;;;;25.03;51.82;101230.59;4947450;28;20050;-78
2023/09/11 00:52:21;;;;;;;20.58;16.70;;;;;;;25.12;51.04;101229.25;4952446;28;20104;-79
2023/09/11 00:54:50;;;;;;;29.02;17.85;;;;;;;25.17;49.70;101243.03;4965624;28;20495;-80
2023/09/11 00:57:21;;;;;;;23.50;17.58;;;;;;;25.03;48.71;101236.00;4960375;28;20053;-79
2023/09/11 00:59:48;;;;;;;22.02;17.23;;;;;;;24.95;48.48;101246.06;4969764;28;20567;-78
2023/09/11 01:02:15;;;;;;;21.75;17.15;;;;;;;24.72;48.46;101224.03;4969499;28;20057;-82
2023/09/11 01:04:43;;;;;;;26.20;17.17;;;;;;;24.61;49.60;101213.81;4964421;28;20089;-78
2023/09/11 01:07:14;;;;;;;19.38;15.50;;;;;;;24.63;51.92;101231.56;4940333;28;20529;-78
2023/09/11 01:09:41;;;;;;;22.27;18.10;;;;;;;24.00;49.82;101155.31;4944265;28;20049;-79
2023/09/11 01:12:09;;;;;;;25.80;18.60;;;;;;;24.25;49.78;101207.88;4939894;28;20766;-80
2023/09/11 01:14:39;;;;;;;26.23;17.40;;;;;;;24.35;50.75;101234.56;4945689;28;20049;-80
2023/09/11 01:17:27;;;;;;;;;;;;;;;24.30;50.38;101237.06;4955093;28;20478;-79
2023/09/11 01:20:32;;;;;;;26.00;17.67;;;;;;;24.28;50.00;101233.72;4878480;28;20790;-80
2023/09/11 01:23:25;;;;;;;25.20;17.58;;;;;;;23.98;50.51;101201.66;4959287;28;20489;-78
2023/09/11 01:26:05;;;;;;;23.33;18.20;;;;;;;24.07;50.51;101222.06;4921987;28;20057;-80
2023/09/11 01:29:05;;;;;;;25.95;18.60;;;;;;;23.69;50.79;101175.78;4940632;28;20145;-80
2023/09/11 01:31:35;;;;;;;23.70;19.10;;;;;;;23.66;50.89;101190.56;4920448;28;20061;-80
2023/09/11 01:34:03;;;;;;;26.77;17.98;;;;;;;23.75;51.03;101204.78;4914236;28;20101;-78
2023/09/11 01:36:31;;;;;;;27.40;19.23;;;;;;;23.52;51.24;101177.22;4947969;28;20176;-79
2023/09/11 01:38:58;;;;;;;20.38;16.75;;;;;;;23.80;53.44;101218.53;4945482;28;20809;-78
2023/09/11 01:41:46;;;;;;;26.80;18.70;;;;;;;23.98;52.17;101220.63;4952194;28;20326;-78
2023/09/11 01:44:39;;;;;;;21.92;17.25;;;;;;;23.93;51.43;101198.72;4946202;28;20046;-79
2023/09/11 01:47:07;;;;;;;22.50;17.40;;;;;;;23.95;51.49;101212.91;4953660;28;20805;-79
2023/09/11 01:49:37;;;;;;;18.48;16.48;;;;;;;23.74;53.35;101153.47;4968898;28;20050;-77
2023/09/11 01:52:07;;;;;;;25.88;18.20;;;;;;;23.98;51.38;101188.09;4958851;28;20490;-78
2023/09/11 01:54:35;;;;;;;24.85;17.20;;;;;;;23.93;51.39;101203.31;4963102;28;20792;-78
2023/09/11 01:57:07;;;;;;;25.70;18.63;;;;;;;23.67;51.36;101188.72;4972172;28;20330;-80
2023/09/11 01:59:37;;;;;;;22.73;17.75;;;;;;;23.53;51.89;101190.56;4970051;28;20054;-78
2023/09/11 02:02:07;;;;;;;24.38;19.25;;;;;;;23.52;52.20;101207.03;4956567;28;20281;-77
2023/09/11 02:04:34;;;;;;;27.65;19.77;;;;;;;23.36;52.58;101202.88;4931173;28;20056;-79
2023/09/11 02:07:07;;;;;;;22.85;18.65;;;;;;;22.77;52.87;101115.84;4937111;28;20050;-79
2023/09/11 02:09:34;;;;;;;26.13;18.73;;;;;;;22.83;52.88;101138.56;4941024;28;20476;-79
2023/09/11 02:12:01;;;;;;;26.05;18.13;;;;;;;23.06;53.11;101175.28;4936796;28;20064;-80
2023/09/11 02:14:28;;;;;;;23.00;17.02;;;;;;;23.18;53.07;101207.00;4932220;28;20512;-79
2023/09/11 02:17:02;;;;;;;25.50;18.05;;;;;;;23.20;53.33;101204.06;4949385;28;20471;-78
2023/09/11 02:19:32;;;;;;;22.42;18.25;;;;;;;22.95;53.48;101172.13;4941976;28;20575;-79
2023/09/11 02:22:05;;;;;;;24.67;18.75;;;;;;;23.11;53.66;101200.72;4942437;28;20666;-79
2023/09/11 02:24:38;;;;;;;23.85;18.90;;;;;;;23.08;53.71;101190.28;4915815;28;20050;-79
2023/09/11 02:27:05;;;;;;;26.30;18.52;;;;;;;22.88;53.53;101157.72;4934936;28;20061;-78
2023/09/11 02:29:32;;;;;;;23.67;18.35;;;;;;;23.09;53.33;101202.81;4922973;28;20492;-76
2023/09/11 02:32:08;;;;;;;23.88;19.23;;;;;;;23.08;53.88;101193.00;4900384;28;20442;-79
2023/09/11 02:34:46;;;;;;;20.80;18.17;;;;;;;22.94;53.55;101166.94;4916307;28;20397;-78
2023/09/11 02:37:17;;;;;;;27.17;19.30;;;;;;;23.12;53.89;101196.16;4911433;28;20328;-79
2023/09/11 02:39:44;;;;;;;30.05;18.63;;;;;;;22.73;53.60;101138.94;4884982;28;20129;-80
2023/09/11 02:42:16;;;;;;;23.23;19.35;;;;;;;23.13;53.80;101198.66;4888709;28;20306;-79
2023/09/11 02:44:49;;;;;;;28.08;20.15;;;;;;;23.00;54.03;101166.13;4876778;28;20388;-79
2023/09/11 02:47:19;;;;;;;27.05;20.08;;;;;;;23.28;53.72;101205.75;4916630;28;20334;-80
2023/09/11 02:49:46;;;;;;;32.83;20.35;;;;;;;23.12;53.74;101175.31;4919030;28;20058;-79
2023/09/11 02:52:13;;;;;;;28.00;19.70;;;;;;;23.07;53.33;101172.38;4962038;28;20046;-79
2023/09/11 02:54:43;;;;;;;28.05;19.17;;;;;;;23.20;53.69;101169.69;4946082;28;20053;-80
2023/09/11 02:57:10;;;;;;;25.10;18.90;;;;;;;23.52;54.48;101194.34;4944085;28;20530;-79
2023/09/11 02:59:38;;;;;;;27.23;20.25;;;;;;;23.59;53.11;101205.16;4929174;28;20054;-80
2023/09/11 03:02:05;;;;;;;25.27;19.33;;;;;;;23.35;53.13;101174.09;4949916;28;20313;-80
2023/09/11 03:04:32;;;;;;;23.80;20.20;;;;;;;23.18;53.83;101169.09;4975332;28;20046;-79
2023/09/11 03:06:59;;;;;;;19.80;17.67;;;;;;;23.20;55.00;101166.97;4979114;28;20139;-79
2023/09/11 03:09:29;;;;;;;24.42;18.50;;;;;;;23.38;53.70;101189.94;4962894;28;20128;-79
2023/09/11 03:11:56;;;;;;;23.85;19.75;;;;;;;23.30;53.88;101179.28;4958272;28;20064;-79
2023/09/11 03:14:23;;;;;;;24.33;18.20;;;;;;;23.26;53.72;101187.00;4948001;28;20466;-79
2023/09/11 03:16:51;;;;;;;27.30;19.70;;;;;;;23.08;54.20;101174.03;4919321;28;20463;-80
2023/09/11 03:19:18;;;;;;;27.85;19.48;;;;;;;23.02;53.95;101174.88;4975985;28;20206;-78
2023/09/11 03:21:45;;;;;;;27.98;18.83;;;;;;;22.75;54.01;101139.59;4926932;28;20141;-80
2023/09/11 03:24:12;;;;;;;24.00;18.75;;;;;;;23.09;54.14;101186.56;4933097;28;20342;-78
2023/09/11 03:26:40;;;;;;;25.33;19.75;;;;;;;23.02;53.91;101191.13;4947698;28;20137;-78
2023/09/11 03:29:07;;;;;;;28.42;21.48;;;;;;;22.78;54.30;101160.81;4960037;28;20046;-79
2023/09/11 03:31:34;;;;;;;24.33;19.20;;;;;;;22.78;54.78;101162.69;4960867;28;20041;-80
2023/09/11 03:34:01;;;;;;;26.42;19.10;;;;;;;22.73;55.14;101168.72;4956541;28;20609;-78
2023/09/11 03:36:28;;;;;;;27.70;21.05;;;;;;;22.51;54.92;101140.13;4960898;28;20057;-78
2023/09/11 03:38:59;;;;;;;22.02;17.58;;;;;;;22.79;56.14;101186.88;4932961;28;20276;-81
2023/09/11 03:41:35;;;;;;;28.38;21.63;;;;;;;22.68;55.03;101162.25;4909390;28;20628;-79
2023/09/11 03:44:05;;;;;;;30.95;21.95;;;;;;;22.61;54.75;101156.81;4936442;28;20053;-78
2023/09/11 03:46:33;;;;;;;26.55;20.65;;;;;;;22.78;54.69;101187.88;4958469;28;20464;-78
2023/09/11 03:49:00;;;;;;;30.33;22.20;;;;;;;22.79;54.93;101189.56;4960692;28;20498;-80
2023/09/11 03:51:30;;;;;;;27.80;20.30;;;;;;;22.79;54.93;101186.88;4966464;28;20092;-77
2023/09/11 03:53:58;;;;;;;29.40;21.73;;;;;;;22.82;54.92;101180.22;4960491;28;20057;-80
2023/09/11 03:56:25;;;;;;;26.85;21.92;;;;;;;22.80;54.81;101169.56;4975246;28;20422;-78
2023/09/11 03:58:55;;;;;;;33.30;21.90;;;;;;;22.80;54.25;101172.28;4972564;28;20976;-79
2023/09/11 04:01:22;;;;;;;32.60;22.30;;;;;;;22.60;54.36;101149.75;4972622;28;20516;-79
2023/09/11 04:03:49;;;;;;;33.88;20.58;;;;;;;22.97;55.02;101193.59;4961022;28;20691;-79
2023/09/11 04:06:16;;;;;;;23.80;19.15;;;;;;;23.04;54.79;101191.75;4972976;28;20050;-80
2023/09/11 04:08:43;;;;;;;26.10;21.70;;;;;;;23.03;54.13;101190.06;4955141;28;20072;-81
2023/09/11 04:11:14;;;;;;;24.52;20.58;;;;;;;22.94;54.47;101184.00;4943873;28;20070;-80
2023/09/11 04:13:47;;;;;;;33.03;20.05;;;;;;;22.93;54.80;101165.25;4917525;28;20525;-78
2023/09/11 04:16:16;;;;;;;30.98;22.33;;;;;;;22.82;54.10;101153.16;4906166;28;20051;-79
2023/09/11 04:18:43;;;;;;;27.13;21.77;;;;;;;22.16;53.91;101067.13;4912617;28;20478;-79
2023/09/11 04:21:11;;;;;;;32.33;23.10;;;;;;;22.78;54.14;101179.75;4923417;28;20145;-78
2023/09/11 04:23:42;;;;;;;31.75;23.95;;;;;;;22.68;54.49;101181.19;4948768;28;20046;-78
2023/09/11 04:26:12;;;;;;;33.88;22.50;;;;;;;22.67;54.49;101174.97;4941931;28;20153;-79
2023/09/11 04:28:39;;;;;;;25.50;20.98;;;;;;;22.52;54.27;101142.63;4944427;28;20046;-80
2023/09/11 04:31:07;;;;;;;34.20;21.95;;;;;;;22.79;54.62;101178.75;4931523;28;20271;-80
2023/09/11 04:33:35;;;;;;;29.00;22.20;;;;;;;22.70;54.23;101179.13;4954761;28;20108;-80
2023/09/11 04:36:02;;;;;;;27.05;19.60;;;;;;;22.97;57.08;101190.88;4948695;28;20049;-79
2023/09/11 04:38:29;;;;;;;30.08;19.98;;;;;;;23.08;55.45;101184.88;4950960;28;20121;-78
2023/09/11 04:40:57;;;;;;;29.35;21.63;;;;;;;23.15;54.17;101187.59;4936692;28;20430;-80
2023/09/11 04:43:28;;;;;;;31.88;21.65;;;;;;;23.04;53.57;101178.22;4914889;28;20704;-79
2023/09/11 04:45:57;;;;;;;37.85;23.23;;;;;;;22.90;53.69;101187.31;4896457;28;20467;-78
2023/09/11 04:48:24;;;;;;;29.27;21.90;;;;;;;22.47;54.17;101155.09;4951013;28;20108;-80
2023/09/11 04:50:51;;;;;;;32.78;23.05;;;;;;;22.44;54.79;101172.56;4961670;28;20047;-80
2023/09/11 04:53:19;;;;;;;29.27;21.67;;;;;;;22.45;54.82;101163.38;4978016;28;20041;-79
2023/09/11 04:55:47;;;;;;;36.72;22.80;;;;;;;22.56;54.53;101187.19;4977624;28;20124;-80
2023/09/11 04:58:14;;;;;;;26.77;21.08;;;;;;;22.63;54.71;101198.03;4979313;28;20086;-78
2023/09/11 05:00:41;;;;;;;28.10;21.90;;;;;;;22.36;54.72;101157.34;4933810;28;20081;-78
2023/09/11 05:03:08;;;;;;;42.08;32.15;;;;;;;22.52;54.57;101196.72;4926190;28;20577;-79
2023/09/11 05:05:40;;;;;;;30.98;22.65;;;;;;;22.46;54.84;101202.13;4937266;28;20101;-80
2023/09/11 05:08:12;;;;;;;26.33;21.83;;;;;;;22.27;55.05;101188.28;4898959;28;20569;-79
2023/09/11 05:14:26;;;;;;;32.03;22.02;;;;;;;22.48;56.15;101200.88;4973548;28;20502;-80
2023/09/11 05:16:57;;;;;;;36.17;22.35;;;;;;;22.08;55.48;101134.88;4963469;28;20117;-79
2023/09/11 05:19:24;;;;;;;33.35;22.60;;;;;;;22.39;55.56;101186.69;4938068;28;20057;-80
2023/09/11 05:21:53;;;;;;;24.55;20.58;;;;;;;22.51;55.62;101210.47;4925114;28;20046;-79
2023/09/11 05:24:23;;;;;;;34.97;23.13;;;;;;;22.32;55.60;101185.81;4919491;28;20599;-80
2023/09/11 05:26:53;;;;;;;33.35;22.25;;;;;;;22.21;55.62;101183.69;4933016;28;20051;-80
2023/09/11 05:29:19;;;;;;;25.73;20.77;;;;;;;22.23;55.91;101181.59;4942811;28;20554;-79
2023/09/11 05:31:48;;;;;;;31.90;22.88;;;;;;;22.38;56.01;101203.97;4932621;28;20058;-79
2023/09/11 05:34:20;;;;;;;34.85;23.23;;;;;;;22.21;56.42;101178.28;4915322;28;20066;-79
2023/09/11 05:36:47;;;;;;;33.08;22.65;;;;;;;22.30;57.69;101176.22;4953843;28;20058;-78
2023/09/11 05:39:16;;;;;;;33.47;21.70;;;;;;;22.69;57.79;101208.03;4934954;28;20053;-80
2023/09/11 05:41:47;;;;;;;42.38;24.92;;;;;;;22.88;55.83;101211.88;4931152;28;20054;-79
2023/09/11 05:44:15;;;;;;;32.42;22.80;;;;;;;22.89;56.30;101199.16;4918634;28;20472;-80
2023/09/11 05:46:49;;;;;;;35.25;22.70;;;;;;;23.02;55.33;101208.19;4937523;28;20062;-79
2023/09/11 05:49:18;;;;;;;46.80;23.67;;;;;;;22.99;55.11;101186.13;4925130;28;20494;-76
2023/09/11 05:51:45;;;;;;;30.17;21.08;;;;;;;23.27;56.52;101213.03;4913349;28;20117;-79
2023/09/11 05:54:16;;;;;;;35.28;22.27;;;;;;;22.59;55.49;101081.25;4914904;28;20422;-81
2023/09/11 05:56:45;;;;;;;36.72;24.30;;;;;;;23.02;54.87;101147.81;4925131;28;20080;-81
2023/09/11 05:59:12;;;;;;;26.92;19.48;;;;;;;23.32;57.38;101150.13;4914254;28;20468;-80
2023/09/11 06:01:39;;;;;;;28.35;21.25;;;;;;;23.59;54.85;101203.31;4922316;28;20521;-80
2023/09/11 06:04:11;;;;;;;32.28;22.42;;;;;;;23.50;54.20;101209.09;4933999;28;20137;-81
2023/09/11 06:06:39;;;;;;;31.02;21.70;;;;;;;23.14;54.27;101157.00;4965282;28;20108;-79
2023/09/11 06:09:08;;;;;;;34.83;21.63;;;;;;;23.52;54.01;101216.03;4973877;28;20057;-78
2023/09/11 06:11:35;;;;;;;34.35;21.27;;;;;;;23.40;53.71;101177.00;4903358;28;20435;-80
2023/09/11 06:14:03;;;;;;;31.67;20.50;;;;;;;23.28;53.50;101148.88;4923441;28;20372;-78
2023/09/11 06:16:29;;;;;;;28.80;21.45;;;;;;;23.65;53.18;101197.03;4920885;28;20398;-81
2023/09/11 06:19:00;;;;;;;28.80;20.23;;;;;;;23.68;53.24;101212.06;4940699;28;20043;-77
2023/09/11 06:21:27;;;;;;;30.77;21.40;;;;;;;23.52;53.65;101197.06;4914715;28;20047;-77
2023/09/11 06:23:57;;;;;;;36.20;22.42;;;;;;;23.62;53.79;101213.72;4940796;28;20057;-76
2023/09/11 06:26:23;;;;;;;32.92;21.80;;;;;;;23.60;53.84;101218.50;4915473;28;20126;-79
2023/09/11 06:28:54;;;;;;;31.73;20.67;;;;;;;23.51;53.71;101189.94;4974657;28;20133;-79
2023/09/11 06:31:25;;;;;;;35.88;21.38;;;;;;;23.36;53.77;101175.78;4915830;28;20042;-75
2023/09/11 06:33:52;;;;;;;34.35;22.67;;;;;;;23.56;53.55;101209.13;4933753;28;20050;-79
2023/09/11 06:36:19;;;;;;;31.40;21.70;;;;;;;23.56;53.83;101203.69;4939036;28;20230;-78
2023/09/11 06:38:48;;;;;;;32.20;22.38;;;;;;;23.60;54.35;101207.66;4925017;28;20398;-77
2023/09/11 06:41:15;;;;;;;30.40;23.02;;;;;;;23.64;53.96;101202.66;4924860;28;20609;-79
2023/09/11 06:43:46;;;;;;;33.83;23.27;;;;;;;23.80;54.56;101217.72;4942723;28;20060;-77
2023/09/11 06:46:12;;;;;;;27.05;19.17;;;;;;;23.74;55.34;101184.16;4945753;28;20418;-78
2023/09/11 06:48:42;;;;;;;35.88;21.98;;;;;;;24.01;54.17;101200.41;4937902;28;20046;-77
2023/09/11 06:51:13;;;;;;;30.58;22.60;;;;;;;24.01;53.54;101184.13;4962566;28;20053;-79
2023/09/11 06:53:40;;;;;;;33.30;21.42;;;;;;;24.30;54.31;101221.63;4926370;28;20546;-77
2023/09/11 06:56:08;;;;;;;36.53;23.17;;;;;;;24.26;53.05;101203.25;4949039;28;20054;-78
2023/09/11 06:58:34;;;;;;;28.42;21.65;;;;;;;24.36;52.93;101224.53;4967118;28;20493;-78
2023/09/11 07:01:03;;;;;;;37.65;21.17;;;;;;;24.37;54.01;101183.63;4953621;28;20663;-79
2023/09/11 07:03:31;;;;;;;29.42;20.33;;;;;;;24.57;52.96;101221.56;4952542;28;20154;-79
2023/09/11 07:05:58;;;;;;;30.00;21.02;;;;;;;24.53;53.40;101229.28;4948253;28;20050;-78
2023/09/11 07:08:26;;;;;;;23.90;18.60;;;;;;;24.63;54.86;101230.75;4914713;28;20281;-80
2023/09/11 07:10:55;;;;;;;28.27;20.00;;;;;;;24.56;53.32;101213.63;4952567;28;20129;-78
2023/09/11 07:13:25;;;;;;;26.77;19.38;;;;;;;24.65;53.02;101236.78;4959748;28;20058;-78
2023/09/11 07:15:59;;;;;;;31.38;20.95;;;;;;;24.69;52.25;101232.59;4951828;28;20394;-79
2023/09/11 07:18:26;;;;;;;29.58;20.65;;;;;;;24.66;52.41;101224.88;4944753;28;20210;-79
2023/09/11 07:20:54;;;;;;;24.58;18.73;;;;;;;24.63;52.42;101217.16;4959355;28;20050;-78
2023/09/11 07:23:24;;;;;;;31.35;19.92;;;;;;;24.66;52.48;101224.88;4962678;28;20671;-78
2023/09/11 07:25:51;;;;;;;32.60;20.23;;;;;;;24.80;52.08;101242.78;4964203;28;20241;-79
2023/09/11 07:28:18;;;;;;;25.23;17.80;;;;;;;24.85;52.54;101237.53;4941926;28;20058;-80
2023/09/11 07:30:48;;;;;;;29.25;19.45;;;;;;;24.72;52.55;101196.88;4948199;28;20054;-79
2023/09/11 07:33:14;;;;;;;30.88;19.58;;;;;;;24.92;51.58;101224.75;4941597;28;20486;-80
2023/09/11 07:35:42;;;;;;;31.80;19.23;;;;;;;24.82;52.18;101202.66;4949337;28;20138;-79
2023/09/11 07:38:14;;;;;;;29.80;19.27;;;;;;;25.05;50.85;101223.03;4935119;28;20101;-77
2023/09/11 07:40:46;;;;;;;26.27;17.27;;;;;;;25.11;51.38;101239.28;4908725;28;20381;-77
2023/09/11 07:43:13;;;;;;;25.83;19.55;;;;;;;25.08;50.51;101212.56;4927056;28;20105;-79
2023/09/11 07:45:40;;;;;;;27.15;17.95;;;;;;;25.07;49.88;101202.75;4934506;28;20079;-79
2023/09/11 07:48:06;;;;;;;28.00;18.77;;;;;;;25.24;49.97;101222.09;4938573;28;20499;-78
2023/09/11 07:50:36;;;;;;;21.98;17.35;;;;;;;25.22;51.70;101213.38;4940357;28;20074;-80
2023/09/11 07:53:03;;;;;;;28.10;17.52;;;;;;;25.35;52.27;101207.81;4945256;28;20046;-77
2023/09/11 07:55:29;;;;;;;28.60;17.92;;;;;;;25.35;51.00;101212.44;4958204;28;20052;-79
2023/09/11 07:57:56;;;;;;;28.80;18.13;;;;;;;25.29;49.33;101203.28;4940707;28;20042;-80
2023/09/11 08:00:24;;;;;;;25.88;17.08;;;;;;;25.48;48.76;101222.38;4942718;28;20644;-79
2023/09/11 08:02:52;;;;;;;21.08;16.95;;;;;;;25.50;50.15;101223.81;4955976;28;20093;-79
2023/09/11 08:05:19;;;;;;;25.50;16.88;;;;;;;25.47;49.28;101210.69;4958795;28;20285;-79
2023/09/11 08:07:45;;;;;;;21.98;16.30;;;;;;;25.63;48.59;101224.78;4957669;28;20140;-78
2023/09/11 08:10:14;;;;;;;25.20;16.73;;;;;;;25.61;49.84;101219.56;4967093;28;20672;-76
2023/09/11 08:12:40;;;;;;;20.38;16.33;;;;;;;25.24;48.91;101156.91;4966837;28;20485;-79
2023/09/11 08:15:08;;;;;;;25.10;16.48;;;;;;;25.71;50.43;101225.34;4970441;28;20446;-77
2023/09/11 08:17:35;;;;;;;20.02;16.77;;;;;;;25.69;51.19;101211.13;4956331;28;20060;-76
2023/09/11 08:20:09;;;;;;;26.48;17.08;;;;;;;25.80;50.03;101229.47;4967621;28;20296;-78
2023/09/11 08:22:39;;;;;;;20.88;16.13;;;;;;;25.88;48.59;101222.09;4956552;28;20048;-78
2023/09/11 08:25:08;;;;;;;20.30;17.30;;;;;;;25.88;48.95;101200.34;4972308;28;20120;-76
2023/09/11 08:27:37;;;;;;;23.67;16.58;;;;;;;25.89;47.22;101200.09;4952130;28;20123;-78
2023/09/11 08:30:06;;;;;;;29.80;16.70;;;;;;;25.80;45.76;101171.50;4965290;28;20054;-77
2023/09/11 08:32:33;;;;;;;20.60;16.13;;;;;;;26.00;46.79;101214.88;4952747;28;20086;-79
2023/09/11 08:35:04;;;;;;;23.05;17.17;;;;;;;26.07;48.47;101226.53;4964960;28;20474;-79
2023/09/11 08:37:33;;;;;;;23.40;17.75;;;;;;;25.96;48.29;101197.31;4978281;28;20073;-80
2023/09/11 08:40:00;;;;;;;19.45;15.40;;;;;;;26.11;48.69;101225.00;4967705;28;20498;-79
2023/09/11 08:42:27;;;;;;;23.05;16.08;;;;;;;26.12;49.27;101221.25;4959353;28;20445;-80
2023/09/11 08:44:54;;;;;;;19.60;16.13;;;;;;;26.28;46.77;101218.97;4962559;28;20057;-79
2023/09/11 08:47:29;;;;;;;20.73;16.25;;;;;;;26.28;47.06;101211.63;4966752;28;20057;-79
2023/09/11 08:50:03;;;;;;;21.88;16.40;;;;;;;26.00;48.20;101171.34;4981705;28;20077;-78
2023/09/11 08:52:31;;;;;;;22.33;15.85;;;;;;;26.34;47.19;101223.53;4960429;28;20425;-78
2023/09/11 08:55:03;;;;;;;19.33;15.55;;;;;;;26.33;49.45;101213.69;4962809;28;20138;-78
2023/09/11 08:57:32;;;;;;;27.48;16.80;;;;;;;26.03;48.42;101157.28;4956371;28;20353;-78
2023/09/11 09:00:05;;;;;;;21.35;16.10;;;;;;;26.43;45.76;101203.09;4978836;28;20121;-79
2023/09/11 09:02:34;;;;;;;25.63;16.70;;;;;;;26.47;45.58;101198.88;4961821;28;20053;-78
2023/09/11 09:05:03;;;;;;;21.45;16.52;;;;;;;26.54;46.86;101201.56;4955788;28;20056;-78
2023/09/11 09:07:32;;;;;;;;;;;;;;;26.63;45.38;101209.19;4958469;28;20050;-74
2023/09/11 09:10:02;;;;;;;22.75;15.20;;;;;;;26.53;45.55;101178.06;4957829;28;20052;-79
2023/09/11 09:12:29;;;;;;;23.08;15.40;;;;;;;26.59;46.42;101183.47;4975107;28;20050;-78
2023/09/11 09:14:59;;;;;;;22.75;16.95;;;;;;;26.86;44.80;101185.84;4972166;28;20052;-78
2023/09/11 09:17:26;;;;;;;26.17;17.15;;;;;;;26.76;45.50;101161.88;4956816;28;20149;-77
2023/09/11 09:19:53;;;;;;;23.55;16.25;;;;;;;27.08;46.81;101200.59;4953346;28;20202;-75
2023/09/11 09:22:19;;;;;;;25.35;16.85;;;;;;;27.03;45.63;101186.84;4956844;28;20054;-79
2023/09/11 09:24:51;;;;;;;25.55;15.20;;;;;;;27.12;45.68;101192.00;4958224;28;20137;-81
2023/09/11 09:27:19;;;;;;;21.15;16.95;;;;;;;27.32;44.52;101184.38;4975292;28;20219;-78
2023/09/11 09:29:49;;;;;;;23.92;15.65;;;;;;;27.45;45.94;101197.81;4960569;28;20223;-77
2023/09/11 09:32:17;;;;;;;21.52;15.45;;;;;;;27.39;45.25;101190.53;4957865;28;20072;-77
2023/09/11 09:34:53;;;;;;;17.90;14.50;;;;;;;27.68;43.97;101198.91;4968911;28;20065;-78
2023/09/11 09:37:21;;;;;;;24.42;15.23;;;;;;;27.78;43.84;101190.13;4954139;28;20054;-77
2023/09/11 09:39:48;;;;;;;16.35;14.38;;;;;;;27.88;43.54;101184.94;4963631;28;20050;-76
2023/09/11 09:42:19;;;;;;;23.23;15.13;;;;;;;27.85;44.11;101183.50;4948853;28;20169;-79
2023/09/11 09:44:55;;;;;;;19.33;15.63;;;;;;;27.90;44.18;101191.81;4982351;28;20506;-78
2023/09/11 09:47:23;;;;;;;21.00;16.08;;;;;;;28.11;42.17;101181.38;4977099;28;20518;-79
2023/09/11 09:49:53;;;;;;;19.30;14.90;;;;;;;28.23;41.91;101168.53;4954442;28;20501;-78
2023/09/11 09:52:32;;;;;;;20.77;14.38;;;;;;;28.30;43.17;101163.78;4968428;28;20045;-79
2023/09/11 09:55:08;;;;;;;;;;;;;;;28.40;42.56;101181.41;4970076;28;20450;-79
2023/09/11 09:57:35;;;;;;;24.10;15.07;;;;;;;28.42;42.14;101152.78;4961869;28;20044;-79
2023/09/11 10:00:05;;;;;;;20.67;15.25;;;;;;;28.11;42.74;101083.13;4974907;28;20064;-79
2023/09/11 10:02:34;;;;;;;26.83;15.07;;;;;;;28.74;42.35;101174.22;4949864;28;20079;-78
2023/09/11 10:05:04;;;;;;;22.65;15.23;;;;;;;28.49;41.69;101117.19;4935851;28;20050;-78
2023/09/11 10:07:43;;;;;;;25.02;15.18;;;;;;;28.83;41.93;101166.47;4941570;28;20053;-77
2023/09/11 10:10:26;;;;;;;20.52;15.25;;;;;;;29.06;42.66;101149.13;4940602;28;20043;-77
2023/09/11 10:13:08;;;;;;;17.30;14.05;;;;;;;29.21;41.20;101152.16;4934444;28;20082;-76
2023/09/11 10:15:39;;;;;;;18.42;14.32;;;;;;;29.23;42.73;101150.00;4941950;28;20042;-77
2023/09/11 10:18:10;;;;;;;22.52;14.95;;;;;;;29.19;41.83;101138.72;4939364;28;20077;-77
2023/09/11 10:20:39;;;;;;;18.20;14.48;;;;;;;28.55;42.71;101045.22;4936824;28;20054;-78
2023/09/11 10:23:08;;;;;;;21.30;14.23;;;;;;;29.35;40.95;101128.06;4941466;28;20061;-78
2023/09/11 10:25:42;;;;;;;19.30;14.63;;;;;;;29.56;43.23;101132.75;4942874;28;20150;-76
2023/09/11 10:28:17;;;;;;;20.20;14.63;;;;;;;29.44;41.73;101134.75;4947096;28;20053;-78
2023/09/11 10:30:55;;;;;;;22.17;13.57;;;;;;;29.48;41.29;101140.56;4936290;28;20141;-78
2023/09/11 10:33:35;;;;;;;24.55;17.05;;;;;;;29.84;40.06;101139.22;4945568;28;20078;-77
2023/09/11 10:36:10;;;;;;;20.25;15.05;;;;;;;29.43;42.36;101078.41;4949354;28;20046;-78
2023/09/11 10:38:38;;;;;;;22.17;14.35;;;;;;;29.73;41.97;101137.41;4946546;28;20265;-79
2023/09/11 10:41:07;;;;;;;25.98;15.88;;;;;;;29.50;42.51;101122.81;4960024;28;20555;-77
2023/09/11 10:43:35;;;;;;;23.85;16.20;;;;;;;29.61;40.02;101105.50;4942020;28;20132;-76
2023/09/11 10:46:30;;;;;;;22.48;16.35;;;;;;;30.10;38.10;101106.72;4931727;28;20051;-79
2023/09/11 10:48:58;;;;;;;26.50;16.27;;;;;;;30.12;39.95;101118.22;4920698;28;20517;-78
2023/09/11 10:51:32;;;;;;;20.75;15.90;;;;;;;30.42;37.62;101104.94;4928790;28;20514;-80
2023/09/11 10:54:02;;;;;;;18.60;15.13;;;;;;;30.54;36.52;101098.50;4918431;28;20532;-81
2023/09/11 10:56:38;;;;;;;27.67;16.10;;;;;;;30.65;37.32;101113.94;4933539;28;20437;-80
2023/09/11 10:59:14;;;;;;;19.00;14.00;;;;;;;30.65;39.67;101109.28;4928919;28;20899;-78
2023/09/11 11:01:43;;;;;;;17.00;14.20;;;;;;;30.45;38.00;101101.69;4934177;28;20394;-77
2023/09/11 11:04:16;;;;;;;20.13;14.48;;;;;;;30.45;37.62;101101.69;4968144;28;20466;-78
2023/09/11 11:06:45;;;;;;;16.67;14.25;;;;;;;30.54;37.82;101098.50;4958883;28;20313;-78
2023/09/11 11:09:32;;;;;;;20.33;16.60;;;;;;;30.71;37.69;101087.41;4948784;28;20046;-79
2023/09/11 11:12:07;;;;;;;19.60;14.85;;;;;;;30.75;37.25;101081.16;4962927;28;20406;-78
2023/09/11 11:14:34;;;;;;;17.67;13.63;;;;;;;30.53;38.02;101003.69;4963370;28;20050;-77
2023/09/11 11:17:10;;;;;;;16.98;14.25;;;;;;;31.15;38.22;101077.16;4964249;28;20053;-78
2023/09/11 11:19:39;;;;;;;17.20;14.98;;;;;;;31.12;37.60;101077.69;4963440;28;20498;-77
2023/09/11 11:22:08;;;;;;;20.15;15.57;;;;;;;31.06;37.72;101078.75;4958116;28;20058;-78
2023/09/11 11:24:55;;;;;;;20.05;15.32;;;;;;;30.90;37.39;101068.72;4961475;28;20039;-79